sensor_id;sensor_type;location;lat;lon;timestamp;P1;durP1;ratioP1;P2;durP2;ratioP2
40515;SDS011;26216;53.724;9.898;2024-03-06T00:02:24;7.05;;;4.85;;
40515;SDS011;26216;53.724;9.898;2024-03-06T00:04:50;7.32;;;4.78;;
40515;SDS011;26216;53.724;9.898;2024-03-06T00:07:16;8.73;;;6.13;;
40515;SDS011;26216;53.724;9.898;2024-03-06T00:09:42;9.65;;;5.88;;
40515;SDS011;26216;53.724;9.898;2024-03-06T00:12:08;7.93;;;5.35;;
40515;SDS011;26216;53.724;9.898;2024-03-06T00:14:34;8.75;;;5.85;;
40515;SDS011;26216;53.724;9.898;2024-03-06T00:17:01;8.02;;;5.57;;
40515;SDS011;26216;53.724;9.898;2024-03-06T00:19:32;7.78;;;4.88;;
40515;SDS011;26216;53.724;9.898;2024-03-06T00:21:58;7.60;;;5.28;;
40515;SDS011;26216;53.724;9.898;2024-03-06T00:24:24;8.07;;;5.60;;
40515;SDS011;26216;53.724;9.898;2024-03-06T00:26:50;8.80;;;6.20;;
40515;SDS011;26216;53.724;9.898;2024-03-06T00:29:16;7.82;;;5.50;;
40515;SDS011;26216;53.724;9.898;2024-03-06T00:31:43;7.65;;;5.63;;
40515;SDS011;26216;53.724;9.898;2024-03-06T00:34:12;7.30;;;5.50;;
40515;SDS011;26216;53.724;9.898;2024-03-06T00:36:45;7.43;;;5.10;;
40515;SDS011;26216;53.724;9.898;2024-03-06T00:39:10;6.28;;;4.47;;
40515;SDS011;26216;53.724;9.898;2024-03-06T00:41:39;9.85;;;5.13;;
40515;SDS011;26216;53.724;9.898;2024-03-06T00:44:05;7.28;;;5.03;;
40515;SDS011;26216;53.724;9.898;2024-03-06T00:46:31;6.53;;;4.60;;
40515;SDS011;26216;53.724;9.898;2024-03-06T00:48:57;7.15;;;4.45;;
40515;SDS011;26216;53.724;9.898;2024-03-06T00:51:23;7.38;;;4.80;;
40515;SDS011;26216;53.724;9.898;2024-03-06T00:53:49;6.32;;;4.63;;
40515;SDS011;26216;53.724;9.898;2024-03-06T00:56:15;5.75;;;4.15;;
40515;SDS011;26216;53.724;9.898;2024-03-06T00:58:40;6.20;;;4.20;;
40515;SDS011;26216;53.724;9.898;2024-03-06T01:01:06;7.78;;;4.70;;
40515;SDS011;26216;53.724;9.898;2024-03-06T01:03:32;9.15;;;4.40;;
40515;SDS011;26216;53.724;9.898;2024-03-06T01:05:58;8.75;;;4.80;;
40515;SDS011;26216;53.724;9.898;2024-03-06T01:08:24;6.75;;;4.22;;
40515;SDS011;26216;53.724;9.898;2024-03-06T01:10:50;8.50;;;4.38;;
40515;SDS011;26216;53.724;9.898;2024-03-06T01:13:17;5.88;;;4.38;;
40515;SDS011;26216;53.724;9.898;2024-03-06T01:15:44;6.18;;;4.20;;
40515;SDS011;26216;53.724;9.898;2024-03-06T01:18:10;5.43;;;4.13;;
40515;SDS011;26216;53.724;9.898;2024-03-06T01:20:36;5.90;;;4.00;;
40515;SDS011;26216;53.724;9.898;2024-03-06T01:23:02;4.90;;;3.53;;
40515;SDS011;26216;53.724;9.898;2024-03-06T01:25:29;7.43;;;4.72;;
40515;SDS011;26216;53.724;9.898;2024-03-06T01:27:54;9.38;;;4.90;;
40515;SDS011;26216;53.724;9.898;2024-03-06T01:30:20;7.53;;;4.38;;
40515;SDS011;26216;53.724;9.898;2024-03-06T01:32:46;6.30;;;4.15;;
40515;SDS011;26216;53.724;9.898;2024-03-06T01:35:12;6.13;;;3.65;;
40515;SDS011;26216;53.724;9.898;2024-03-06T01:37:38;6.18;;;3.97;;
40515;SDS011;26216;53.724;9.898;2024-03-06T01:40:04;7.20;;;4.45;;
40515;SDS011;26216;53.724;9.898;2024-03-06T01:42:31;8.43;;;4.32;;
40515;SDS011;26216;53.724;9.898;2024-03-06T01:44:57;6.57;;;4.47;;
40515;SDS011;26216;53.724;9.898;2024-03-06T01:47:22;6.57;;;4.18;;
40515;SDS011;26216;53.724;9.898;2024-03-06T01:49:48;5.15;;;3.72;;
40515;SDS011;26216;53.724;9.898;2024-03-06T01:52:14;7.72;;;4.60;;
40515;SDS011;26216;53.724;9.898;2024-03-06T01:54:42;5.90;;;3.90;;
40515;SDS011;26216;53.724;9.898;2024-03-06T01:57:10;7.20;;;4.40;;
40515;SDS011;26216;53.724;9.898;2024-03-06T01:59:38;8.60;;;4.30;;
40515;SDS011;26216;53.724;9.898;2024-03-06T02:02:05;6.20;;;4.63;;
40515;SDS011;26216;53.724;9.898;2024-03-06T02:04:33;6.43;;;4.38;;
40515;SDS011;26216;53.724;9.898;2024-03-06T02:07:00;7.30;;;4.65;;
40515;SDS011;26216;53.724;9.898;2024-03-06T02:09:27;5.13;;;3.83;;
40515;SDS011;26216;53.724;9.898;2024-03-06T02:11:53;7.38;;;4.32;;
40515;SDS011;26216;53.724;9.898;2024-03-06T02:14:19;8.70;;;4.63;;
40515;SDS011;26216;53.724;9.898;2024-03-06T02:16:45;7.03;;;4.28;;
40515;SDS011;26216;53.724;9.898;2024-03-06T02:19:11;9.02;;;4.80;;
40515;SDS011;26216;53.724;9.898;2024-03-06T02:21:36;5.70;;;4.00;;
40515;SDS011;26216;53.724;9.898;2024-03-06T02:24:02;7.10;;;4.63;;
40515;SDS011;26216;53.724;9.898;2024-03-06T02:26:28;7.90;;;5.00;;
40515;SDS011;26216;53.724;9.898;2024-03-06T02:28:56;8.35;;;5.18;;
40515;SDS011;26216;53.724;9.898;2024-03-06T02:31:22;5.43;;;4.22;;
40515;SDS011;26216;53.724;9.898;2024-03-06T02:33:48;6.47;;;4.32;;
40515;SDS011;26216;53.724;9.898;2024-03-06T02:36:15;6.13;;;4.47;;
40515;SDS011;26216;53.724;9.898;2024-03-06T02:38:45;6.38;;;4.40;;
40515;SDS011;26216;53.724;9.898;2024-03-06T02:41:11;6.50;;;4.70;;
40515;SDS011;26216;53.724;9.898;2024-03-06T02:43:39;6.32;;;4.50;;
40515;SDS011;26216;53.724;9.898;2024-03-06T02:46:05;6.85;;;4.40;;
40515;SDS011;26216;53.724;9.898;2024-03-06T02:48:31;7.78;;;5.30;;
40515;SDS011;26216;53.724;9.898;2024-03-06T02:50:56;5.97;;;4.60;;
40515;SDS011;26216;53.724;9.898;2024-03-06T02:53:23;6.40;;;4.82;;
40515;SDS011;26216;53.724;9.898;2024-03-06T02:55:50;8.23;;;4.43;;
40515;SDS011;26216;53.724;9.898;2024-03-06T02:58:16;6.93;;;4.28;;
40515;SDS011;26216;53.724;9.898;2024-03-06T03:00:42;6.55;;;4.18;;
40515;SDS011;26216;53.724;9.898;2024-03-06T03:03:09;9.80;;;4.45;;
40515;SDS011;26216;53.724;9.898;2024-03-06T03:05:37;6.38;;;4.38;;
40515;SDS011;26216;53.724;9.898;2024-03-06T03:08:04;7.65;;;4.40;;
40515;SDS011;26216;53.724;9.898;2024-03-06T03:10:31;5.88;;;4.47;;
40515;SDS011;26216;53.724;9.898;2024-03-06T03:12:57;5.97;;;4.10;;
40515;SDS011;26216;53.724;9.898;2024-03-06T03:15:22;6.35;;;4.05;;
40515;SDS011;26216;53.724;9.898;2024-03-06T03:17:48;5.57;;;4.22;;
40515;SDS011;26216;53.724;9.898;2024-03-06T03:20:14;6.72;;;4.70;;
40515;SDS011;26216;53.724;9.898;2024-03-06T03:22:42;6.85;;;4.68;;
40515;SDS011;26216;53.724;9.898;2024-03-06T03:25:12;7.30;;;4.70;;
40515;SDS011;26216;53.724;9.898;2024-03-06T03:27:39;6.43;;;4.22;;
40515;SDS011;26216;53.724;9.898;2024-03-06T03:30:08;5.45;;;3.58;;
40515;SDS011;26216;53.724;9.898;2024-03-06T03:32:36;5.13;;;3.87;;
40515;SDS011;26216;53.724;9.898;2024-03-06T03:35:07;5.90;;;4.05;;
40515;SDS011;26216;53.724;9.898;2024-03-06T03:37:33;6.05;;;3.90;;
40515;SDS011;26216;53.724;9.898;2024-03-06T03:40:00;6.35;;;4.30;;
40515;SDS011;26216;53.724;9.898;2024-03-06T03:42:26;6.43;;;4.53;;
40515;SDS011;26216;53.724;9.898;2024-03-06T03:44:52;5.85;;;4.22;;
40515;SDS011;26216;53.724;9.898;2024-03-06T03:47:18;5.82;;;4.07;;
40515;SDS011;26216;53.724;9.898;2024-03-06T03:49:44;5.70;;;3.83;;
40515;SDS011;26216;53.724;9.898;2024-03-06T03:52:10;6.25;;;4.15;;
40515;SDS011;26216;53.724;9.898;2024-03-06T03:54:37;6.13;;;3.90;;
40515;SDS011;26216;53.724;9.898;2024-03-06T03:57:03;7.03;;;4.78;;
40515;SDS011;26216;53.724;9.898;2024-03-06T03:59:29;7.53;;;4.75;;
40515;SDS011;26216;53.724;9.898;2024-03-06T04:01:55;5.90;;;4.13;;
40515;SDS011;26216;53.724;9.898;2024-03-06T04:04:22;6.00;;;4.30;;
40515;SDS011;26216;53.724;9.898;2024-03-06T04:06:48;5.53;;;3.83;;
40515;SDS011;26216;53.724;9.898;2024-03-06T04:09:14;5.47;;;4.32;;
40515;SDS011;26216;53.724;9.898;2024-03-06T04:11:40;7.18;;;4.15;;
40515;SDS011;26216;53.724;9.898;2024-03-06T04:14:06;7.53;;;4.30;;
40515;SDS011;26216;53.724;9.898;2024-03-06T04:16:33;6.07;;;3.88;;
40515;SDS011;26216;53.724;9.898;2024-03-06T04:18:59;5.78;;;4.13;;
40515;SDS011;26216;53.724;9.898;2024-03-06T04:21:26;8.23;;;4.82;;
40515;SDS011;26216;53.724;9.898;2024-03-06T04:23:52;5.70;;;4.10;;
40515;SDS011;26216;53.724;9.898;2024-03-06T04:26:17;7.10;;;4.57;;
40515;SDS011;26216;53.724;9.898;2024-03-06T04:28:43;6.13;;;4.40;;
40515;SDS011;26216;53.724;9.898;2024-03-06T04:31:09;5.10;;;3.70;;
40515;SDS011;26216;53.724;9.898;2024-03-06T04:33:35;6.38;;;4.60;;
40515;SDS011;26216;53.724;9.898;2024-03-06T04:36:02;6.60;;;4.68;;
40515;SDS011;26216;53.724;9.898;2024-03-06T04:38:31;6.38;;;4.13;;
40515;SDS011;26216;53.724;9.898;2024-03-06T04:40:57;6.85;;;4.53;;
40515;SDS011;26216;53.724;9.898;2024-03-06T04:43:23;6.30;;;4.35;;
40515;SDS011;26216;53.724;9.898;2024-03-06T04:45:49;6.07;;;4.00;;
40515;SDS011;26216;53.724;9.898;2024-03-06T04:48:15;7.63;;;5.03;;
40515;SDS011;26216;53.724;9.898;2024-03-06T04:50:44;5.40;;;4.10;;
40515;SDS011;26216;53.724;9.898;2024-03-06T04:53:10;5.93;;;4.47;;
40515;SDS011;26216;53.724;9.898;2024-03-06T04:55:36;5.82;;;3.90;;
40515;SDS011;26216;53.724;9.898;2024-03-06T04:58:04;7.07;;;4.53;;
40515;SDS011;26216;53.724;9.898;2024-03-06T05:00:30;5.75;;;4.30;;
40515;SDS011;26216;53.724;9.898;2024-03-06T05:02:56;5.65;;;4.22;;
40515;SDS011;26216;53.724;9.898;2024-03-06T05:05:22;5.88;;;4.45;;
40515;SDS011;26216;53.724;9.898;2024-03-06T05:07:50;5.57;;;3.60;;
40515;SDS011;26216;53.724;9.898;2024-03-06T05:10:17;6.13;;;4.00;;
40515;SDS011;26216;53.724;9.898;2024-03-06T05:12:42;6.40;;;3.92;;
40515;SDS011;26216;53.724;9.898;2024-03-06T05:15:09;6.60;;;4.07;;
40515;SDS011;26216;53.724;9.898;2024-03-06T05:17:35;7.63;;;5.20;;
40515;SDS011;26216;53.724;9.898;2024-03-06T05:20:01;6.63;;;4.95;;
40515;SDS011;26216;53.724;9.898;2024-03-06T05:22:29;6.28;;;4.40;;
40515;SDS011;26216;53.724;9.898;2024-03-06T05:24:55;5.25;;;3.90;;
40515;SDS011;26216;53.724;9.898;2024-03-06T05:27:21;5.78;;;3.80;;
40515;SDS011;26216;53.724;9.898;2024-03-06T05:29:47;7.03;;;4.30;;
40515;SDS011;26216;53.724;9.898;2024-03-06T05:32:13;6.15;;;3.95;;
40515;SDS011;26216;53.724;9.898;2024-03-06T05:34:39;6.15;;;4.63;;
40515;SDS011;26216;53.724;9.898;2024-03-06T05:37:05;6.15;;;4.13;;
40515;SDS011;26216;53.724;9.898;2024-03-06T05:39:31;7.10;;;4.75;;
40515;SDS011;26216;53.724;9.898;2024-03-06T05:42:03;6.40;;;4.40;;
40515;SDS011;26216;53.724;9.898;2024-03-06T05:44:30;6.70;;;4.50;;
40515;SDS011;26216;53.724;9.898;2024-03-06T05:47:00;6.65;;;4.68;;
40515;SDS011;26216;53.724;9.898;2024-03-06T05:49:28;6.33;;;4.07;;
40515;SDS011;26216;53.724;9.898;2024-03-06T05:51:54;7.07;;;4.55;;
40515;SDS011;26216;53.724;9.898;2024-03-06T05:54:21;6.10;;;4.28;;
40515;SDS011;26216;53.724;9.898;2024-03-06T05:56:50;6.15;;;4.32;;
40515;SDS011;26216;53.724;9.898;2024-03-06T05:59:17;6.47;;;4.75;;
40515;SDS011;26216;53.724;9.898;2024-03-06T06:01:43;6.00;;;4.30;;
40515;SDS011;26216;53.724;9.898;2024-03-06T06:04:10;5.95;;;4.30;;
40515;SDS011;26216;53.724;9.898;2024-03-06T06:06:37;5.53;;;4.05;;
40515;SDS011;26216;53.724;9.898;2024-03-06T06:09:03;5.70;;;3.55;;
40515;SDS011;26216;53.724;9.898;2024-03-06T06:11:32;5.30;;;3.53;;
40515;SDS011;26216;53.724;9.898;2024-03-06T06:13:58;4.80;;;3.40;;
40515;SDS011;26216;53.724;9.898;2024-03-06T06:16:25;6.40;;;3.55;;
40515;SDS011;26216;53.724;9.898;2024-03-06T06:18:51;4.78;;;3.50;;
40515;SDS011;26216;53.724;9.898;2024-03-06T06:21:17;5.50;;;3.10;;
40515;SDS011;26216;53.724;9.898;2024-03-06T06:23:43;5.72;;;3.63;;
40515;SDS011;26216;53.724;9.898;2024-03-06T06:26:10;5.53;;;3.22;;
40515;SDS011;26216;53.724;9.898;2024-03-06T06:28:36;4.03;;;2.88;;
40515;SDS011;26216;53.724;9.898;2024-03-06T06:31:05;3.83;;;2.95;;
40515;SDS011;26216;53.724;9.898;2024-03-06T06:33:31;5.43;;;3.17;;
40515;SDS011;26216;53.724;9.898;2024-03-06T06:35:57;5.15;;;3.50;;
40515;SDS011;26216;53.724;9.898;2024-03-06T06:38:23;4.60;;;3.33;;
40515;SDS011;26216;53.724;9.898;2024-03-06T06:40:49;4.70;;;3.40;;
40515;SDS011;26216;53.724;9.898;2024-03-06T06:43:15;5.25;;;3.38;;
40515;SDS011;26216;53.724;9.898;2024-03-06T06:45:41;5.32;;;3.63;;
40515;SDS011;26216;53.724;9.898;2024-03-06T06:48:08;4.65;;;3.33;;
40515;SDS011;26216;53.724;9.898;2024-03-06T06:50:34;5.55;;;3.80;;
40515;SDS011;26216;53.724;9.898;2024-03-06T06:53:01;4.72;;;3.30;;
40515;SDS011;26216;53.724;9.898;2024-03-06T06:55:27;5.95;;;3.90;;
40515;SDS011;26216;53.724;9.898;2024-03-06T06:57:53;5.72;;;4.07;;
40515;SDS011;26216;53.724;9.898;2024-03-06T07:00:19;5.93;;;4.10;;
40515;SDS011;26216;53.724;9.898;2024-03-06T07:02:47;6.05;;;4.45;;
40515;SDS011;26216;53.724;9.898;2024-03-06T07:05:13;8.30;;;5.30;;
40515;SDS011;26216;53.724;9.898;2024-03-06T07:07:39;6.82;;;5.18;;
40515;SDS011;26216;53.724;9.898;2024-03-06T07:10:06;5.55;;;3.92;;
40515;SDS011;26216;53.724;9.898;2024-03-06T07:12:32;5.68;;;4.15;;
40515;SDS011;26216;53.724;9.898;2024-03-06T07:14:58;5.28;;;3.90;;
40515;SDS011;26216;53.724;9.898;2024-03-06T07:17:33;6.63;;;4.18;;
40515;SDS011;26216;53.724;9.898;2024-03-06T07:19:59;5.45;;;4.47;;
40515;SDS011;26216;53.724;9.898;2024-03-06T07:22:26;6.43;;;4.30;;
40515;SDS011;26216;53.724;9.898;2024-03-06T07:24:52;6.85;;;4.72;;
40515;SDS011;26216;53.724;9.898;2024-03-06T07:27:17;7.25;;;4.28;;
40515;SDS011;26216;53.724;9.898;2024-03-06T07:29:44;5.20;;;3.80;;
40515;SDS011;26216;53.724;9.898;2024-03-06T07:32:10;5.32;;;3.92;;
40515;SDS011;26216;53.724;9.898;2024-03-06T07:34:36;6.00;;;4.55;;
40515;SDS011;26216;53.724;9.898;2024-03-06T07:37:02;6.10;;;4.15;;
40515;SDS011;26216;53.724;9.898;2024-03-06T07:39:28;5.82;;;4.30;;
40515;SDS011;26216;53.724;9.898;2024-03-06T07:41:54;6.03;;;3.92;;
40515;SDS011;26216;53.724;9.898;2024-03-06T07:44:20;7.20;;;5.25;;
40515;SDS011;26216;53.724;9.898;2024-03-06T07:46:46;8.93;;;6.03;;
40515;SDS011;26216;53.724;9.898;2024-03-06T07:49:11;7.70;;;5.28;;
40515;SDS011;26216;53.724;9.898;2024-03-06T07:51:38;7.18;;;5.50;;
40515;SDS011;26216;53.724;9.898;2024-03-06T07:54:06;7.15;;;5.53;;
40515;SDS011;26216;53.724;9.898;2024-03-06T07:56:32;9.40;;;5.80;;
40515;SDS011;26216;53.724;9.898;2024-03-06T07:58:58;8.20;;;6.03;;
40515;SDS011;26216;53.724;9.898;2024-03-06T08:01:25;7.70;;;5.13;;
40515;SDS011;26216;53.724;9.898;2024-03-06T08:03:54;6.85;;;5.10;;
40515;SDS011;26216;53.724;9.898;2024-03-06T08:06:20;7.32;;;5.13;;
40515;SDS011;26216;53.724;9.898;2024-03-06T08:08:46;6.20;;;4.90;;
40515;SDS011;26216;53.724;9.898;2024-03-06T08:11:15;7.57;;;5.20;;
40515;SDS011;26216;53.724;9.898;2024-03-06T08:13:41;7.03;;;5.22;;
40515;SDS011;26216;53.724;9.898;2024-03-06T08:16:07;5.30;;;3.92;;
40515;SDS011;26216;53.724;9.898;2024-03-06T08:18:33;5.43;;;4.20;;
40515;SDS011;26216;53.724;9.898;2024-03-06T08:21:00;5.68;;;4.13;;
40515;SDS011;26216;53.724;9.898;2024-03-06T08:23:27;5.88;;;4.50;;
40515;SDS011;26216;53.724;9.898;2024-03-06T08:25:53;5.22;;;3.30;;
40515;SDS011;26216;53.724;9.898;2024-03-06T08:28:19;5.35;;;3.83;;
40515;SDS011;26216;53.724;9.898;2024-03-06T08:30:45;6.00;;;4.10;;
40515;SDS011;26216;53.724;9.898;2024-03-06T08:33:11;5.47;;;3.75;;
40515;SDS011;26216;53.724;9.898;2024-03-06T08:35:38;5.65;;;4.00;;
40515;SDS011;26216;53.724;9.898;2024-03-06T08:38:04;6.00;;;4.60;;
40515;SDS011;26216;53.724;9.898;2024-03-06T08:40:31;6.57;;;4.32;;
40515;SDS011;26216;53.724;9.898;2024-03-06T08:42:57;5.43;;;3.80;;
40515;SDS011;26216;53.724;9.898;2024-03-06T08:45:23;5.20;;;4.00;;
40515;SDS011;26216;53.724;9.898;2024-03-06T08:47:49;5.75;;;3.97;;
40515;SDS011;26216;53.724;9.898;2024-03-06T08:50:16;6.97;;;4.38;;
40515;SDS011;26216;53.724;9.898;2024-03-06T08:52:42;6.28;;;4.03;;
40515;SDS011;26216;53.724;9.898;2024-03-06T08:55:08;4.85;;;3.58;;
40515;SDS011;26216;53.724;9.898;2024-03-06T08:57:35;4.82;;;3.42;;
40515;SDS011;26216;53.724;9.898;2024-03-06T09:00:02;5.72;;;4.13;;
40515;SDS011;26216;53.724;9.898;2024-03-06T09:02:29;5.40;;;4.30;;
40515;SDS011;26216;53.724;9.898;2024-03-06T09:04:55;6.78;;;4.38;;
40515;SDS011;26216;53.724;9.898;2024-03-06T09:07:22;4.53;;;3.58;;
40515;SDS011;26216;53.724;9.898;2024-03-06T09:09:51;5.88;;;4.28;;
40515;SDS011;26216;53.724;9.898;2024-03-06T09:12:17;6.10;;;3.75;;
40515;SDS011;26216;53.724;9.898;2024-03-06T09:14:44;5.35;;;3.90;;
40515;SDS011;26216;53.724;9.898;2024-03-06T09:17:10;5.15;;;3.80;;
40515;SDS011;26216;53.724;9.898;2024-03-06T09:19:39;5.65;;;3.80;;
40515;SDS011;26216;53.724;9.898;2024-03-06T09:22:06;7.80;;;4.38;;
40515;SDS011;26216;53.724;9.898;2024-03-06T09:24:33;6.43;;;3.83;;
40515;SDS011;26216;53.724;9.898;2024-03-06T09:27:03;5.30;;;3.40;;
40515;SDS011;26216;53.724;9.898;2024-03-06T09:29:29;6.03;;;3.60;;
40515;SDS011;26216;53.724;9.898;2024-03-06T09:31:55;6.13;;;4.28;;
40515;SDS011;26216;53.724;9.898;2024-03-06T09:34:21;6.78;;;4.22;;
40515;SDS011;26216;53.724;9.898;2024-03-06T09:36:49;6.18;;;3.58;;
40515;SDS011;26216;53.724;9.898;2024-03-06T09:39:15;7.35;;;5.07;;
40515;SDS011;26216;53.724;9.898;2024-03-06T09:41:46;6.45;;;4.85;;
40515;SDS011;26216;53.724;9.898;2024-03-06T09:44:13;5.93;;;4.60;;
40515;SDS011;26216;53.724;9.898;2024-03-06T09:46:43;5.68;;;4.50;;
40515;SDS011;26216;53.724;9.898;2024-03-06T09:49:11;4.88;;;3.83;;
40515;SDS011;26216;53.724;9.898;2024-03-06T09:51:51;5.85;;;4.20;;
40515;SDS011;26216;53.724;9.898;2024-03-06T09:54:20;6.85;;;4.18;;
40515;SDS011;26216;53.724;9.898;2024-03-06T09:56:49;5.78;;;4.20;;
40515;SDS011;26216;53.724;9.898;2024-03-06T09:59:15;9.15;;;4.68;;
40515;SDS011;26216;53.724;9.898;2024-03-06T10:02:00;6.40;;;4.70;;
40515;SDS011;26216;53.724;9.898;2024-03-06T10:04:32;6.68;;;4.70;;
40515;SDS011;26216;53.724;9.898;2024-03-06T10:06:59;6.30;;;4.35;;
40515;SDS011;26216;53.724;9.898;2024-03-06T10:09:27;5.45;;;3.83;;
40515;SDS011;26216;53.724;9.898;2024-03-06T10:11:54;5.18;;;3.35;;
40515;SDS011;26216;53.724;9.898;2024-03-06T10:14:22;5.45;;;4.03;;
40515;SDS011;26216;53.724;9.898;2024-03-06T10:16:52;4.97;;;4.13;;
40515;SDS011;26216;53.724;9.898;2024-03-06T10:19:19;5.88;;;4.18;;
40515;SDS011;26216;53.724;9.898;2024-03-06T10:21:48;4.97;;;3.58;;
40515;SDS011;26216;53.724;9.898;2024-03-06T10:24:17;5.40;;;3.90;;
40515;SDS011;26216;53.724;9.898;2024-03-06T10:26:44;5.28;;;4.20;;
40515;SDS011;26216;53.724;9.898;2024-03-06T10:29:10;5.47;;;3.80;;
40515;SDS011;26216;53.724;9.898;2024-03-06T10:31:36;6.05;;;4.28;;
40515;SDS011;26216;53.724;9.898;2024-03-06T10:34:02;5.53;;;4.20;;
40515;SDS011;26216;53.724;9.898;2024-03-06T10:36:31;5.97;;;4.38;;
40515;SDS011;26216;53.724;9.898;2024-03-06T10:38:58;5.38;;;4.07;;
40515;SDS011;26216;53.724;9.898;2024-03-06T10:41:27;5.70;;;4.40;;
40515;SDS011;26216;53.724;9.898;2024-03-06T10:43:57;6.10;;;4.45;;
40515;SDS011;26216;53.724;9.898;2024-03-06T10:46:26;5.57;;;4.05;;
40515;SDS011;26216;53.724;9.898;2024-03-06T10:48:53;5.93;;;4.45;;
40515;SDS011;26216;53.724;9.898;2024-03-06T10:51:23;4.78;;;3.55;;
40515;SDS011;26216;53.724;9.898;2024-03-06T10:53:51;4.88;;;3.58;;
40515;SDS011;26216;53.724;9.898;2024-03-06T10:56:18;6.55;;;4.13;;
40515;SDS011;26216;53.724;9.898;2024-03-06T10:58:46;5.68;;;4.13;;
40515;SDS011;26216;53.724;9.898;2024-03-06T11:01:18;5.75;;;4.45;;
40515;SDS011;26216;53.724;9.898;2024-03-06T11:03:44;5.05;;;4.05;;
40515;SDS011;26216;53.724;9.898;2024-03-06T11:06:13;5.40;;;4.38;;
40515;SDS011;26216;53.724;9.898;2024-03-06T11:08:40;5.55;;;4.22;;
40515;SDS011;26216;53.724;9.898;2024-03-06T11:11:18;5.63;;;3.60;;
40515;SDS011;26216;53.724;9.898;2024-03-06T11:13:46;5.40;;;3.85;;
40515;SDS011;26216;53.724;9.898;2024-03-06T11:16:13;5.10;;;3.80;;
40515;SDS011;26216;53.724;9.898;2024-03-06T11:24:11;5.57;;;4.20;;
40515;SDS011;26216;53.724;9.898;2024-03-06T11:26:57;5.50;;;4.25;;
40515;SDS011;26216;53.724;9.898;2024-03-06T11:30:13;5.43;;;4.28;;
40515;SDS011;26216;53.724;9.898;2024-03-06T11:32:37;7.07;;;4.13;;
40515;SDS011;26216;53.724;9.898;2024-03-06T11:35:04;5.35;;;4.07;;
40515;SDS011;26216;53.724;9.898;2024-03-06T11:37:33;5.32;;;3.72;;
40515;SDS011;26216;53.724;9.898;2024-03-06T11:40:01;5.57;;;4.18;;
40515;SDS011;26216;53.724;9.898;2024-03-06T11:42:34;5.20;;;4.15;;
40515;SDS011;26216;53.724;9.898;2024-03-06T11:45:16;5.53;;;4.40;;
40515;SDS011;26216;53.724;9.898;2024-03-06T11:50:23;5.97;;;4.45;;
40515;SDS011;26216;53.724;9.898;2024-03-06T11:52:51;5.30;;;3.97;;
40515;SDS011;26216;53.724;9.898;2024-03-06T11:55:18;5.63;;;4.05;;
40515;SDS011;26216;53.724;9.898;2024-03-06T11:57:47;5.15;;;4.00;;
40515;SDS011;26216;53.724;9.898;2024-03-06T12:00:13;4.93;;;4.03;;
40515;SDS011;26216;53.724;9.898;2024-03-06T12:02:43;5.57;;;4.00;;
40515;SDS011;26216;53.724;9.898;2024-03-06T12:05:10;5.10;;;4.10;;
40515;SDS011;26216;53.724;9.898;2024-03-06T12:07:46;7.25;;;4.57;;
40515;SDS011;26216;53.724;9.898;2024-03-06T12:10:13;5.55;;;4.20;;
40515;SDS011;26216;53.724;9.898;2024-03-06T12:12:42;7.63;;;5.35;;
40515;SDS011;26216;53.724;9.898;2024-03-06T12:15:10;6.07;;;4.88;;
40515;SDS011;26216;53.724;9.898;2024-03-06T12:17:47;6.22;;;4.43;;
40515;SDS011;26216;53.724;9.898;2024-03-06T12:20:17;6.03;;;4.38;;
40515;SDS011;26216;53.724;9.898;2024-03-06T12:22:44;5.47;;;4.63;;
40515;SDS011;26216;53.724;9.898;2024-03-06T12:25:10;6.38;;;4.68;;
40515;SDS011;26216;53.724;9.898;2024-03-06T12:27:44;5.63;;;4.22;;
40515;SDS011;26216;53.724;9.898;2024-03-06T12:30:10;5.72;;;4.35;;
40515;SDS011;26216;53.724;9.898;2024-03-06T12:32:38;5.13;;;4.53;;
40515;SDS011;26216;53.724;9.898;2024-03-06T12:35:08;5.93;;;3.75;;
40515;SDS011;26216;53.724;9.898;2024-03-06T12:37:34;4.78;;;3.75;;
40515;SDS011;26216;53.724;9.898;2024-03-06T12:40:01;6.28;;;4.28;;
40515;SDS011;26216;53.724;9.898;2024-03-06T12:42:30;5.63;;;3.75;;
40515;SDS011;26216;53.724;9.898;2024-03-06T12:44:56;6.13;;;4.93;;
40515;SDS011;26216;53.724;9.898;2024-03-06T12:47:22;5.78;;;4.63;;
40515;SDS011;26216;53.724;9.898;2024-03-06T12:49:48;6.75;;;4.38;;
40515;SDS011;26216;53.724;9.898;2024-03-06T12:52:16;6.70;;;5.15;;
40515;SDS011;26216;53.724;9.898;2024-03-06T12:54:42;5.47;;;4.10;;
40515;SDS011;26216;53.724;9.898;2024-03-06T12:57:08;5.43;;;4.03;;
40515;SDS011;26216;53.724;9.898;2024-03-06T12:59:34;6.20;;;4.30;;
40515;SDS011;26216;53.724;9.898;2024-03-06T13:02:00;6.40;;;4.68;;
40515;SDS011;26216;53.724;9.898;2024-03-06T13:04:26;6.30;;;3.85;;
40515;SDS011;26216;53.724;9.898;2024-03-06T13:06:52;5.00;;;4.10;;
40515;SDS011;26216;53.724;9.898;2024-03-06T13:09:18;5.63;;;4.22;;
40515;SDS011;26216;53.724;9.898;2024-03-06T13:11:44;6.35;;;4.80;;
40515;SDS011;26216;53.724;9.898;2024-03-06T13:14:10;5.65;;;4.97;;
40515;SDS011;26216;53.724;9.898;2024-03-06T13:16:37;6.68;;;4.35;;
40515;SDS011;26216;53.724;9.898;2024-03-06T13:19:03;5.78;;;4.45;;
40515;SDS011;26216;53.724;9.898;2024-03-06T13:21:29;5.85;;;4.15;;
40515;SDS011;26216;53.724;9.898;2024-03-06T13:23:55;6.05;;;3.95;;
40515;SDS011;26216;53.724;9.898;2024-03-06T13:26:21;5.35;;;4.07;;
40515;SDS011;26216;53.724;9.898;2024-03-06T13:28:48;7.20;;;4.70;;
40515;SDS011;26216;53.724;9.898;2024-03-06T13:31:14;6.47;;;4.60;;
40515;SDS011;26216;53.724;9.898;2024-03-06T13:33:40;9.40;;;4.75;;
40515;SDS011;26216;53.724;9.898;2024-03-06T13:36:06;5.70;;;4.35;;
40515;SDS011;26216;53.724;9.898;2024-03-06T13:38:33;5.15;;;3.90;;
40515;SDS011;26216;53.724;9.898;2024-03-06T13:40:59;5.22;;;3.90;;
40515;SDS011;26216;53.724;9.898;2024-03-06T13:43:29;7.32;;;4.50;;
40515;SDS011;26216;53.724;9.898;2024-03-06T13:45:55;5.25;;;4.32;;
40515;SDS011;26216;53.724;9.898;2024-03-06T13:48:22;5.57;;;4.20;;
40515;SDS011;26216;53.724;9.898;2024-03-06T13:50:49;5.15;;;4.20;;
40515;SDS011;26216;53.724;9.898;2024-03-06T13:53:15;6.70;;;4.10;;
40515;SDS011;26216;53.724;9.898;2024-03-06T13:55:41;7.65;;;4.60;;
40515;SDS011;26216;53.724;9.898;2024-03-06T13:58:08;6.07;;;4.60;;
40515;SDS011;26216;53.724;9.898;2024-03-06T14:00:34;5.10;;;3.97;;
40515;SDS011;26216;53.724;9.898;2024-03-06T14:03:01;5.38;;;4.32;;
40515;SDS011;26216;53.724;9.898;2024-03-06T14:05:27;4.70;;;3.80;;
40515;SDS011;26216;53.724;9.898;2024-03-06T14:07:54;5.70;;;4.05;;
40515;SDS011;26216;53.724;9.898;2024-03-06T14:10:20;5.30;;;3.58;;
40515;SDS011;26216;53.724;9.898;2024-03-06T14:12:48;6.47;;;4.32;;
40515;SDS011;26216;53.724;9.898;2024-03-06T14:15:20;6.55;;;4.43;;
40515;SDS011;26216;53.724;9.898;2024-03-06T14:17:47;6.20;;;4.70;;
40515;SDS011;26216;53.724;9.898;2024-03-06T14:20:14;6.28;;;4.55;;
40515;SDS011;26216;53.724;9.898;2024-03-06T14:22:43;6.28;;;4.70;;
40515;SDS011;26216;53.724;9.898;2024-03-06T14:25:09;6.22;;;4.40;;
40515;SDS011;26216;53.724;9.898;2024-03-06T14:27:37;6.28;;;4.57;;
40515;SDS011;26216;53.724;9.898;2024-03-06T14:30:06;5.68;;;4.22;;
40515;SDS011;26216;53.724;9.898;2024-03-06T14:32:33;6.32;;;4.20;;
40515;SDS011;26216;53.724;9.898;2024-03-06T14:34:59;5.60;;;4.18;;
40515;SDS011;26216;53.724;9.898;2024-03-06T14:37:25;5.28;;;3.97;;
40515;SDS011;26216;53.724;9.898;2024-03-06T14:39:53;4.75;;;3.58;;
40515;SDS011;26216;53.724;9.898;2024-03-06T14:42:20;4.75;;;3.88;;
40515;SDS011;26216;53.724;9.898;2024-03-06T14:44:46;5.57;;;4.10;;
40515;SDS011;26216;53.724;9.898;2024-03-06T14:47:14;4.63;;;3.95;;
40515;SDS011;26216;53.724;9.898;2024-03-06T14:49:41;6.68;;;4.68;;
40515;SDS011;26216;53.724;9.898;2024-03-06T14:52:11;5.93;;;4.18;;
40515;SDS011;26216;53.724;9.898;2024-03-06T14:54:38;5.88;;;4.88;;
40515;SDS011;26216;53.724;9.898;2024-03-06T14:57:08;7.28;;;5.00;;